sensor_id;sensor_type;location;lat;lon;timestamp;P1;durP1;ratioP1;P2;durP2;ratioP2
3095;SDS011;1558;42.700;23.360;2022-08-18T00:01:04;8.73;;;7.80;;
3095;SDS011;1558;42.700;23.360;2022-08-18T00:03:34;8.60;;;7.60;;
3095;SDS011;1558;42.700;23.360;2022-08-18T00:06:23;8.87;;;7.37;;
3095;SDS011;1558;42.700;23.360;2022-08-18T00:08:54;8.67;;;7.87;;
3095;SDS011;1558;42.700;23.360;2022-08-18T00:11:23;9.57;;;8.43;;
3095;SDS011;1558;42.700;23.360;2022-08-18T00:13:51;11.43;;;7.90;;
3095;SDS011;1558;42.700;23.360;2022-08-18T00:16:19;9.30;;;8.47;;
3095;SDS011;1558;42.700;23.360;2022-08-18T00:18:49;9.47;;;8.63;;
3095;SDS011;1558;42.700;23.360;2022-08-18T00:21:17;9.03;;;8.13;;
3095;SDS011;1558;42.700;23.360;2022-08-18T00:23:46;9.20;;;8.30;;
3095;SDS011;1558;42.700;23.360;2022-08-18T00:26:14;9.03;;;8.13;;
3095;SDS011;1558;42.700;23.360;2022-08-18T00:28:42;10.80;;;8.50;;
3095;SDS011;1558;42.700;23.360;2022-08-18T00:31:10;8.70;;;7.90;;
3095;SDS011;1558;42.700;23.360;2022-08-18T00:33:39;9.10;;;8.20;;
3095;SDS011;1558;42.700;23.360;2022-08-18T00:36:10;10.60;;;9.67;;
3095;SDS011;1558;42.700;23.360;2022-08-18T00:38:38;9.73;;;8.93;;
3095;SDS011;1558;42.700;23.360;2022-08-18T00:41:07;9.57;;;8.67;;
3095;SDS011;1558;42.700;23.360;2022-08-18T00:43:37;8.37;;;7.77;;
3095;SDS011;1558;42.700;23.360;2022-08-18T00:46:09;11.00;;;10.00;;
3095;SDS011;1558;42.700;23.360;2022-08-18T00:48:41;9.43;;;8.53;;
3095;SDS011;1558;42.700;23.360;2022-08-18T00:51:18;8.73;;;8.03;;
3095;SDS011;1558;42.700;23.360;2022-08-18T00:53:50;9.70;;;8.80;;
3095;SDS011;1558;42.700;23.360;2022-08-18T00:56:25;9.43;;;8.53;;
3095;SDS011;1558;42.700;23.360;2022-08-18T00:58:57;9.13;;;8.23;;
3095;SDS011;1558;42.700;23.360;2022-08-18T01:01:29;9.30;;;8.40;;
3095;SDS011;1558;42.700;23.360;2022-08-18T01:04:01;9.00;;;8.30;;
3095;SDS011;1558;42.700;23.360;2022-08-18T01:06:38;9.10;;;8.30;;
3095;SDS011;1558;42.700;23.360;2022-08-18T01:09:11;9.27;;;8.57;;
3095;SDS011;1558;42.700;23.360;2022-08-18T01:11:39;9.50;;;8.63;;
3095;SDS011;1558;42.700;23.360;2022-08-18T01:14:08;8.93;;;8.23;;
3095;SDS011;1558;42.700;23.360;2022-08-18T01:16:41;9.47;;;8.67;;
3095;SDS011;1558;42.700;23.360;2022-08-18T01:19:27;9.03;;;8.23;;
3095;SDS011;1558;42.700;23.360;2022-08-18T01:22:16;8.77;;;8.07;;
3095;SDS011;1558;42.700;23.360;2022-08-18T01:24:51;9.50;;;8.60;;
3095;SDS011;1558;42.700;23.360;2022-08-18T01:27:41;11.23;;;8.97;;
3095;SDS011;1558;42.700;23.360;2022-08-18T01:30:10;9.10;;;8.40;;
3095;SDS011;1558;42.700;23.360;2022-08-18T01:32:41;9.23;;;8.43;;
3095;SDS011;1558;42.700;23.360;2022-08-18T01:35:12;9.10;;;8.40;;
3095;SDS011;1558;42.700;23.360;2022-08-18T01:37:43;9.70;;;8.90;;
3095;SDS011;1558;42.700;23.360;2022-08-18T01:40:16;10.17;;;9.23;;
3095;SDS011;1558;42.700;23.360;2022-08-18T01:43:05;9.73;;;8.87;;
3095;SDS011;1558;42.700;23.360;2022-08-18T01:45:34;10.43;;;9.63;;
3095;SDS011;1558;42.700;23.360;2022-08-18T01:48:08;10.13;;;9.27;;
3095;SDS011;1558;42.700;23.360;2022-08-18T01:50:37;10.63;;;9.73;;
3095;SDS011;1558;42.700;23.360;2022-08-18T01:53:07;9.53;;;8.67;;
3095;SDS011;1558;42.700;23.360;2022-08-18T01:55:39;9.93;;;8.93;;
3095;SDS011;1558;42.700;23.360;2022-08-18T01:58:11;10.20;;;9.40;;
3095;SDS011;1558;42.700;23.360;2022-08-18T02:00:39;12.17;;;11.07;;
3095;SDS011;1558;42.700;23.360;2022-08-18T02:03:09;11.00;;;10.00;;
3095;SDS011;1558;42.700;23.360;2022-08-18T02:05:41;11.30;;;10.17;;
3095;SDS011;1558;42.700;23.360;2022-08-18T02:08:15;11.60;;;10.57;;
3095;SDS011;1558;42.700;23.360;2022-08-18T02:10:57;10.47;;;9.60;;
3095;SDS011;1558;42.700;23.360;2022-08-18T02:13:29;10.33;;;9.33;;
3095;SDS011;1558;42.700;23.360;2022-08-18T02:15:57;10.67;;;9.67;;
3095;SDS011;1558;42.700;23.360;2022-08-18T02:18:27;10.60;;;9.67;;
3095;SDS011;1558;42.700;23.360;2022-08-18T02:21:15;10.77;;;9.67;;
3095;SDS011;1558;42.700;23.360;2022-08-18T02:23:48;10.63;;;9.70;;
3095;SDS011;1558;42.700;23.360;2022-08-18T02:26:26;10.87;;;9.87;;
3095;SDS011;1558;42.700;23.360;2022-08-18T02:28:57;11.03;;;10.13;;
3095;SDS011;1558;42.700;23.360;2022-08-18T02:31:31;11.13;;;10.23;;
3095;SDS011;1558;42.700;23.360;2022-08-18T02:34:02;11.53;;;10.33;;
3095;SDS011;1558;42.700;23.360;2022-08-18T02:36:30;11.50;;;10.47;;
3095;SDS011;1558;42.700;23.360;2022-08-18T02:38:59;11.17;;;10.20;;
3095;SDS011;1558;42.700;23.360;2022-08-18T02:41:31;10.70;;;9.63;;
3095;SDS011;1558;42.700;23.360;2022-08-18T02:44:05;11.57;;;10.37;;
3095;SDS011;1558;42.700;23.360;2022-08-18T02:46:34;10.40;;;9.43;;
3095;SDS011;1558;42.700;23.360;2022-08-18T02:49:13;11.03;;;10.03;;
3095;SDS011;1558;42.700;23.360;2022-08-18T02:51:42;11.27;;;10.37;;
3095;SDS011;1558;42.700;23.360;2022-08-18T02:54:14;12.30;;;11.30;;
3095;SDS011;1558;42.700;23.360;2022-08-18T02:56:44;11.50;;;10.47;;
3095;SDS011;1558;42.700;23.360;2022-08-18T02:59:17;11.70;;;10.60;;
3095;SDS011;1558;42.700;23.360;2022-08-18T03:01:50;11.30;;;10.30;;
3095;SDS011;1558;42.700;23.360;2022-08-18T03:04:20;12.80;;;11.60;;
3095;SDS011;1558;42.700;23.360;2022-08-18T03:06:59;11.93;;;10.83;;
3095;SDS011;1558;42.700;23.360;2022-08-18T03:09:59;11.43;;;10.47;;
3095;SDS011;1558;42.700;23.360;2022-08-18T03:12:49;12.27;;;10.73;;
3095;SDS011;1558;42.700;23.360;2022-08-18T03:15:24;11.40;;;10.40;;
3095;SDS011;1558;42.700;23.360;2022-08-18T03:18:09;12.10;;;11.00;;
3095;SDS011;1558;42.700;23.360;2022-08-18T03:20:52;12.03;;;10.93;;
3095;SDS011;1558;42.700;23.360;2022-08-18T03:23:45;12.40;;;11.30;;
3095;SDS011;1558;42.700;23.360;2022-08-18T03:26:29;13.10;;;11.80;;
3095;SDS011;1558;42.700;23.360;2022-08-18T03:29:01;13.17;;;11.97;;
3095;SDS011;1558;42.700;23.360;2022-08-18T03:31:29;13.57;;;12.43;;
3095;SDS011;1558;42.700;23.360;2022-08-18T03:34:24;14.47;;;13.03;;
3095;SDS011;1558;42.700;23.360;2022-08-18T03:37:12;15.73;;;14.13;;
3095;SDS011;1558;42.700;23.360;2022-08-18T03:39:41;15.47;;;13.97;;
3095;SDS011;1558;42.700;23.360;2022-08-18T03:42:09;14.53;;;13.37;;
3095;SDS011;1558;42.700;23.360;2022-08-18T03:44:43;14.90;;;13.40;;
3095;SDS011;1558;42.700;23.360;2022-08-18T03:47:12;15.60;;;13.60;;
3095;SDS011;1558;42.700;23.360;2022-08-18T03:49:43;13.87;;;12.70;;
3095;SDS011;1558;42.700;23.360;2022-08-18T03:52:14;13.53;;;12.33;;
3095;SDS011;1558;42.700;23.360;2022-08-18T03:55:13;14.27;;;12.67;;
3095;SDS011;1558;42.700;23.360;2022-08-18T03:57:46;14.23;;;12.73;;
3095;SDS011;1558;42.700;23.360;2022-08-18T04:00:36;14.97;;;13.27;;
3095;SDS011;1558;42.700;23.360;2022-08-18T04:03:15;14.77;;;13.37;;
3095;SDS011;1558;42.700;23.360;2022-08-18T04:05:43;16.67;;;13.03;;
3095;SDS011;1558;42.700;23.360;2022-08-18T04:08:13;13.20;;;11.87;;
3095;SDS011;1558;42.700;23.360;2022-08-18T04:10:51;14.43;;;12.87;;
3095;SDS011;1558;42.700;23.360;2022-08-18T04:13:19;13.87;;;12.53;;
3095;SDS011;1558;42.700;23.360;2022-08-18T04:15:49;14.60;;;13.37;;
3095;SDS011;1558;42.700;23.360;2022-08-18T04:18:19;14.53;;;13.23;;
3095;SDS011;1558;42.700;23.360;2022-08-18T04:20:58;13.93;;;12.53;;
3095;SDS011;1558;42.700;23.360;2022-08-18T04:23:31;13.83;;;12.40;;
3095;SDS011;1558;42.700;23.360;2022-08-18T04:26:09;15.80;;;14.30;;
3095;SDS011;1558;42.700;23.360;2022-08-18T04:28:45;15.97;;;14.33;;
3095;SDS011;1558;42.700;23.360;2022-08-18T04:31:15;14.43;;;13.03;;
3095;SDS011;1558;42.700;23.360;2022-08-18T04:33:49;14.80;;;13.27;;
3095;SDS011;1558;42.700;23.360;2022-08-18T04:36:17;13.60;;;12.30;;
3095;SDS011;1558;42.700;23.360;2022-08-18T04:38:48;13.87;;;12.57;;
3095;SDS011;1558;42.700;23.360;2022-08-18T04:41:21;14.10;;;12.60;;
3095;SDS011;1558;42.700;23.360;2022-08-18T04:43:52;15.35;;;13.52;;
3095;SDS011;1558;42.700;23.360;2022-08-18T04:46:24;14.13;;;12.75;;
3095;SDS011;1558;42.700;23.360;2022-08-18T04:48:53;16.08;;;12.98;;
3095;SDS011;1558;42.700;23.360;2022-08-18T04:51:26;15.32;;;14.05;;
3095;SDS011;1558;42.700;23.360;2022-08-18T04:54:16;18.52;;;14.13;;
3095;SDS011;1558;42.700;23.360;2022-08-18T04:56:43;18.17;;;15.77;;
3095;SDS011;1558;42.700;23.360;2022-08-18T04:59:12;17.58;;;14.00;;
3095;SDS011;1558;42.700;23.360;2022-08-18T05:01:43;17.20;;;15.45;;
3095;SDS011;1558;42.700;23.360;2022-08-18T05:04:14;16.92;;;15.10;;
3095;SDS011;1558;42.700;23.360;2022-08-18T05:06:54;15.90;;;14.23;;
3095;SDS011;1558;42.700;23.360;2022-08-18T05:09:22;18.08;;;14.48;;
3095;SDS011;1558;42.700;23.360;2022-08-18T05:11:56;20.55;;;15.20;;
3095;SDS011;1558;42.700;23.360;2022-08-18T05:14:25;17.40;;;15.52;;
3095;SDS011;1558;42.700;23.360;2022-08-18T05:16:58;20.15;;;16.88;;
3095;SDS011;1558;42.700;23.360;2022-08-18T05:19:27;21.75;;;17.83;;
3095;SDS011;1558;42.700;23.360;2022-08-18T05:22:10;21.38;;;17.27;;
3095;SDS011;1558;42.700;23.360;2022-08-18T05:24:56;24.85;;;20.67;;
3095;SDS011;1558;42.700;23.360;2022-08-18T05:27:31;17.73;;;16.00;;
3095;SDS011;1558;42.700;23.360;2022-08-18T05:30:06;23.20;;;17.45;;
3095;SDS011;1558;42.700;23.360;2022-08-18T05:32:58;21.08;;;17.70;;
3095;SDS011;1558;42.700;23.360;2022-08-18T05:35:32;19.98;;;17.23;;
3095;SDS011;1558;42.700;23.360;2022-08-18T05:38:16;20.17;;;16.13;;
3095;SDS011;1558;42.700;23.360;2022-08-18T05:41:02;18.67;;;14.52;;
3095;SDS011;1558;42.700;23.360;2022-08-18T05:43:39;17.23;;;12.20;;
3095;SDS011;1558;42.700;23.360;2022-08-18T05:46:17;15.52;;;13.68;;
3095;SDS011;1558;42.700;23.360;2022-08-18T05:48:52;18.45;;;14.65;;
3095;SDS011;1558;42.700;23.360;2022-08-18T05:51:22;17.17;;;12.85;;
3095;SDS011;1558;42.700;23.360;2022-08-18T05:53:55;14.65;;;12.70;;
3095;SDS011;1558;42.700;23.360;2022-08-18T05:56:41;14.20;;;12.18;;
3095;SDS011;1558;42.700;23.360;2022-08-18T05:59:16;11.82;;;10.63;;
3095;SDS011;1558;42.700;23.360;2022-08-18T06:01:53;12.23;;;10.82;;
3095;SDS011;1558;42.700;23.360;2022-08-18T06:04:32;16.08;;;11.65;;
3095;SDS011;1558;42.700;23.360;2022-08-18T06:07:09;13.55;;;12.05;;
3095;SDS011;1558;42.700;23.360;2022-08-18T06:09:42;12.75;;;11.65;;
3095;SDS011;1558;42.700;23.360;2022-08-18T06:12:18;12.48;;;11.00;;
3095;SDS011;1558;42.700;23.360;2022-08-18T06:14:51;13.57;;;11.60;;
3095;SDS011;1558;42.700;23.360;2022-08-18T06:20:44;12.07;;;10.80;;
3095;SDS011;1558;42.700;23.360;2022-08-18T06:23:38;11.65;;;10.48;;
3095;SDS011;1558;42.700;23.360;2022-08-18T06:26:13;13.18;;;11.70;;
3095;SDS011;1558;42.700;23.360;2022-08-18T06:29:00;12.10;;;11.00;;
3095;SDS011;1558;42.700;23.360;2022-08-18T06:31:40;12.20;;;10.93;;
3095;SDS011;1558;42.700;23.360;2022-08-18T06:34:16;12.07;;;10.82;;
3095;SDS011;1558;42.700;23.360;2022-08-18T06:36:54;12.00;;;10.77;;
3095;SDS011;1558;42.700;23.360;2022-08-18T06:39:31;12.25;;;10.70;;
3095;SDS011;1558;42.700;23.360;2022-08-18T06:42:02;16.13;;;11.60;;
3095;SDS011;1558;42.700;23.360;2022-08-18T06:44:33;13.38;;;11.23;;
3095;SDS011;1558;42.700;23.360;2022-08-18T06:47:07;14.82;;;11.45;;
3095;SDS011;1558;42.700;23.360;2022-08-18T06:49:42;12.65;;;11.00;;
3095;SDS011;1558;42.700;23.360;2022-08-18T06:52:27;11.95;;;10.80;;
3095;SDS011;1558;42.700;23.360;2022-08-18T06:54:58;11.35;;;10.25;;
3095;SDS011;1558;42.700;23.360;2022-08-18T06:57:29;12.85;;;10.63;;
3095;SDS011;1558;42.700;23.360;2022-08-18T07:00:03;13.52;;;10.60;;
3095;SDS011;1558;42.700;23.360;2022-08-18T07:02:39;17.83;;;10.90;;
3095;SDS011;1558;42.700;23.360;2022-08-18T07:05:17;16.88;;;10.60;;
3095;SDS011;1558;42.700;23.360;2022-08-18T07:08:02;12.32;;;11.05;;
3095;SDS011;1558;42.700;23.360;2022-08-18T07:10:37;12.10;;;10.85;;
3095;SDS011;1558;42.700;23.360;2022-08-18T07:13:07;12.18;;;10.40;;
3095;SDS011;1558;42.700;23.360;2022-08-18T07:15:43;12.65;;;11.45;;
3095;SDS011;1558;42.700;23.360;2022-08-18T07:18:11;14.63;;;10.93;;
3095;SDS011;1558;42.700;23.360;2022-08-18T07:20:43;13.88;;;11.57;;
3095;SDS011;1558;42.700;23.360;2022-08-18T07:26:06;11.60;;;10.45;;
3095;SDS011;1558;42.700;23.360;2022-08-18T07:28:42;15.35;;;9.65;;
3095;SDS011;1558;42.700;23.360;2022-08-18T07:31:17;10.38;;;9.38;;
3095;SDS011;1558;42.700;23.360;2022-08-18T07:33:52;12.23;;;10.82;;
3095;SDS011;1558;42.700;23.360;2022-08-18T07:36:26;12.90;;;10.73;;
3095;SDS011;1558;42.700;23.360;2022-08-18T07:39:02;14.32;;;9.77;;
3095;SDS011;1558;42.700;23.360;2022-08-18T07:41:37;10.57;;;9.48;;
3095;SDS011;1558;42.700;23.360;2022-08-18T07:44:12;11.73;;;9.02;;
3095;SDS011;1558;42.700;23.360;2022-08-18T07:46:49;10.52;;;9.10;;
3095;SDS011;1558;42.700;23.360;2022-08-18T07:49:25;10.73;;;9.70;;
3095;SDS011;1558;42.700;23.360;2022-08-18T07:52:02;11.52;;;9.63;;
3095;SDS011;1558;42.700;23.360;2022-08-18T07:54:56;9.48;;;8.32;;
3095;SDS011;1558;42.700;23.360;2022-08-18T07:57:37;9.43;;;8.35;;
3095;SDS011;1558;42.700;23.360;2022-08-18T08:00:14;12.73;;;8.63;;
3095;SDS011;1558;42.700;23.360;2022-08-18T08:03:09;12.43;;;8.48;;
3095;SDS011;1558;42.700;23.360;2022-08-18T08:05:53;9.27;;;8.48;;
3095;SDS011;1558;42.700;23.360;2022-08-18T08:08:30;9.13;;;8.30;;
3095;SDS011;1558;42.700;23.360;2022-08-18T08:11:10;9.20;;;8.23;;
3095;SDS011;1558;42.700;23.360;2022-08-18T08:13:57;10.65;;;8.10;;
3095;SDS011;1558;42.700;23.360;2022-08-18T08:16:40;8.70;;;7.47;;
3095;SDS011;1558;42.700;23.360;2022-08-18T08:19:24;8.38;;;7.43;;
3095;SDS011;1558;42.700;23.360;2022-08-18T08:22:22;8.65;;;7.90;;
3095;SDS011;1558;42.700;23.360;2022-08-18T08:25:00;8.48;;;7.68;;
3095;SDS011;1558;42.700;23.360;2022-08-18T08:27:57;8.25;;;7.40;;
3095;SDS011;1558;42.700;23.360;2022-08-18T08:30:35;7.85;;;7.15;;
3095;SDS011;1558;42.700;23.360;2022-08-18T08:33:20;8.73;;;7.90;;
3095;SDS011;1558;42.700;23.360;2022-08-18T08:35:52;8.80;;;7.80;;
3095;SDS011;1558;42.700;23.360;2022-08-18T08:38:29;9.65;;;8.65;;
3095;SDS011;1558;42.700;23.360;2022-08-18T08:41:12;10.63;;;8.32;;
3095;SDS011;1558;42.700;23.360;2022-08-18T08:43:48;9.20;;;7.80;;
3095;SDS011;1558;42.700;23.360;2022-08-18T08:46:29;9.07;;;7.03;;
3095;SDS011;1558;42.700;23.360;2022-08-18T08:49:07;12.00;;;8.27;;
3095;SDS011;1558;42.700;23.360;2022-08-18T08:51:44;9.23;;;8.35;;
3095;SDS011;1558;42.700;23.360;2022-08-18T08:54:22;9.85;;;8.95;;
3095;SDS011;1558;42.700;23.360;2022-08-18T08:56:58;9.63;;;7.72;;
3095;SDS011;1558;42.700;23.360;2022-08-18T08:59:29;8.75;;;7.10;;
3095;SDS011;1558;42.700;23.360;2022-08-18T09:01:59;10.52;;;7.15;;
3095;SDS011;1558;42.700;23.360;2022-08-18T09:05:03;7.60;;;7.00;;
3095;SDS011;1558;42.700;23.360;2022-08-18T09:07:42;10.77;;;7.95;;
3095;SDS011;1558;42.700;23.360;2022-08-18T09:10:25;8.38;;;7.55;;
3095;SDS011;1558;42.700;23.360;2022-08-18T09:13:10;10.60;;;7.55;;
3095;SDS011;1558;42.700;23.360;2022-08-18T09:16:06;8.05;;;7.18;;
3095;SDS011;1558;42.700;23.360;2022-08-18T09:18:46;7.70;;;7.00;;
3095;SDS011;1558;42.700;23.360;2022-08-18T09:21:25;7.40;;;6.75;;
3095;SDS011;1558;42.700;23.360;2022-08-18T09:24:02;7.43;;;6.80;;
3095;SDS011;1558;42.700;23.360;2022-08-18T09:26:40;6.97;;;6.47;;
3095;SDS011;1558;42.700;23.360;2022-08-18T09:29:18;7.70;;;7.00;;
3095;SDS011;1558;42.700;23.360;2022-08-18T09:34:55;7.75;;;6.97;;
3095;SDS011;1558;42.700;23.360;2022-08-18T09:37:38;8.63;;;7.78;;
3095;SDS011;1558;42.700;23.360;2022-08-18T09:40:17;7.80;;;6.95;;
3095;SDS011;1558;42.700;23.360;2022-08-18T09:43:28;7.03;;;6.43;;
3095;SDS011;1558;42.700;23.360;2022-08-18T09:46:02;9.13;;;6.68;;
3095;SDS011;1558;42.700;23.360;2022-08-18T09:48:33;7.43;;;6.70;;
3095;SDS011;1558;42.700;23.360;2022-08-18T09:54:13;7.43;;;6.82;;
3095;SDS011;1558;42.700;23.360;2022-08-18T09:56:57;6.90;;;6.35;;
3095;SDS011;1558;42.700;23.360;2022-08-18T10:03:03;9.77;;;6.85;;
3095;SDS011;1558;42.700;23.360;2022-08-18T10:05:40;9.75;;;7.20;;
3095;SDS011;1558;42.700;23.360;2022-08-18T10:08:33;7.80;;;7.10;;
3095;SDS011;1558;42.700;23.360;2022-08-18T10:11:30;7.80;;;7.18;;
3095;SDS011;1558;42.700;23.360;2022-08-18T10:14:27;7.53;;;6.93;;
3095;SDS011;1558;42.700;23.360;2022-08-18T10:17:12;7.65;;;6.95;;
3095;SDS011;1558;42.700;23.360;2022-08-18T10:20:03;6.57;;;6.03;;
3095;SDS011;1558;42.700;23.360;2022-08-18T10:22:52;7.45;;;6.60;;
3095;SDS011;1558;42.700;23.360;2022-08-18T10:25:31;8.48;;;7.15;;
3095;SDS011;1558;42.700;23.360;2022-08-18T10:28:03;7.40;;;6.78;;
3095;SDS011;1558;42.700;23.360;2022-08-18T10:33:57;8.13;;;6.72;;
3095;SDS011;1558;42.700;23.360;2022-08-18T10:36:47;7.13;;;6.40;;
3095;SDS011;1558;42.700;23.360;2022-08-18T10:39:18;6.80;;;6.20;;
3095;SDS011;1558;42.700;23.360;2022-08-18T10:42:01;7.28;;;6.78;;
3095;SDS011;1558;42.700;23.360;2022-08-18T10:44:33;7.07;;;6.47;;
3095;SDS011;1558;42.700;23.360;2022-08-18T10:47:07;7.57;;;6.97;;
3095;SDS011;1558;42.700;23.360;2022-08-18T10:49:50;6.47;;;5.88;;
3095;SDS011;1558;42.700;23.360;2022-08-18T10:52:22;6.82;;;5.70;;
3095;SDS011;1558;42.700;23.360;2022-08-18T10:55:26;7.50;;;6.82;;
3095;SDS011;1558;42.700;23.360;2022-08-18T10:58:25;6.72;;;6.13;;
3095;SDS011;1558;42.700;23.360;2022-08-18T11:04:06;6.40;;;5.82;;
3095;SDS011;1558;42.700;23.360;2022-08-18T11:07:02;6.70;;;6.15;;
3095;SDS011;1558;42.700;23.360;2022-08-18T11:09:35;9.82;;;7.25;;
3095;SDS011;1558;42.700;23.360;2022-08-18T11:12:33;7.88;;;7.15;;
3095;SDS011;1558;42.700;23.360;2022-08-18T11:15:20;7.43;;;6.72;;
3095;SDS011;1558;42.700;23.360;2022-08-18T11:18:06;7.22;;;6.63;;
3095;SDS011;1558;42.700;23.360;2022-08-18T11:20:42;6.82;;;6.03;;
3095;SDS011;1558;42.700;23.360;2022-08-18T11:23:13;8.00;;;7.15;;
3095;SDS011;1558;42.700;23.360;2022-08-18T11:25:42;7.88;;;7.28;;
3095;SDS011;1558;42.700;23.360;2022-08-18T11:28:14;8.02;;;7.35;;
3095;SDS011;1558;42.700;23.360;2022-08-18T11:30:46;6.57;;;6.07;;
3095;SDS011;1558;42.700;23.360;2022-08-18T11:33:17;6.38;;;5.97;;
3095;SDS011;1558;42.700;23.360;2022-08-18T11:35:49;7.00;;;6.50;;
3095;SDS011;1558;42.700;23.360;2022-08-18T11:38:23;6.85;;;6.40;;
3095;SDS011;1558;42.700;23.360;2022-08-18T11:44:13;7.10;;;6.40;;
3095;SDS011;1558;42.700;23.360;2022-08-18T11:46:48;6.15;;;5.75;;
3095;SDS011;1558;42.700;23.360;2022-08-18T11:49:25;6.15;;;5.70;;
3095;SDS011;1558;42.700;23.360;2022-08-18T11:51:59;7.60;;;6.82;;
3095;SDS011;1558;42.700;23.360;2022-08-18T11:54:35;7.78;;;7.07;;
3095;SDS011;1558;42.700;23.360;2022-08-18T12:00:42;7.03;;;6.40;;
3095;SDS011;1558;42.700;23.360;2022-08-18T12:03:29;6.38;;;5.88;;
3095;SDS011;1558;42.700;23.360;2022-08-18T12:06:09;6.32;;;5.80;;
3095;SDS011;1558;42.700;23.360;2022-08-18T12:08:49;6.50;;;6.00;;
3095;SDS011;1558;42.700;23.360;2022-08-18T12:11:25;7.38;;;6.68;;
3095;SDS011;1558;42.700;23.360;2022-08-18T12:13:57;6.32;;;5.90;;
3095;SDS011;1558;42.700;23.360;2022-08-18T12:16:48;6.90;;;6.30;;
3095;SDS011;1558;42.700;23.360;2022-08-18T12:19:38;6.40;;;5.90;;
3095;SDS011;1558;42.700;23.360;2022-08-18T12:22:12;6.30;;;5.70;;
3095;SDS011;1558;42.700;23.360;2022-08-18T12:24:43;9.07;;;6.65;;
3095;SDS011;1558;42.700;23.360;2022-08-18T12:27:14;8.73;;;6.50;;
3095;SDS011;1558;42.700;23.360;2022-08-18T12:29:47;7.55;;;6.80;;
3095;SDS011;1558;42.700;23.360;2022-08-18T12:32:16;7.45;;;6.95;;
3095;SDS011;1558;42.700;23.360;2022-08-18T12:35:07;6.20;;;5.63;;
3095;SDS011;1558;42.700;23.360;2022-08-18T12:37:37;6.38;;;5.80;;
3095;SDS011;1558;42.700;23.360;2022-08-18T12:40:30;6.95;;;6.35;;
3095;SDS011;1558;42.700;23.360;2022-08-18T12:42:58;7.00;;;5.88;;
3095;SDS011;1558;42.700;23.360;2022-08-18T12:45:26;6.05;;;5.63;;
3095;SDS011;1558;42.700;23.360;2022-08-18T12:47:56;7.05;;;6.45;;
3095;SDS011;1558;42.700;23.360;2022-08-18T12:50:49;7.30;;;6.68;;
3095;SDS011;1558;42.700;23.360;2022-08-18T12:53:37;7.03;;;6.38;;
3095;SDS011;1558;42.700;23.360;2022-08-18T12:56:26;6.57;;;6.00;;
3095;SDS011;1558;42.700;23.360;2022-08-18T12:58:56;6.63;;;6.05;;
3095;SDS011;1558;42.700;23.360;2022-08-18T13:01:30;7.47;;;6.78;;
3095;SDS011;1558;42.700;23.360;2022-08-18T13:03:59;6.30;;;5.90;;
3095;SDS011;1558;42.700;23.360;2022-08-18T13:06:43;7.30;;;6.55;;
3095;SDS011;1558;42.700;23.360;2022-08-18T13:09:26;6.80;;;6.10;;
3095;SDS011;1558;42.700;23.360;2022-08-18T13:12:15;7.47;;;6.10;;
3095;SDS011;1558;42.700;23.360;2022-08-18T13:14:44;6.20;;;5.72;;
3095;SDS011;1558;42.700;23.360;2022-08-18T13:17:14;6.28;;;5.72;;
3095;SDS011;1558;42.700;23.360;2022-08-18T13:19:58;6.85;;;5.93;;
3095;SDS011;1558;42.700;23.360;2022-08-18T13:22:28;6.57;;;6.07;;
3095;SDS011;1558;42.700;23.360;2022-08-18T13:24:58;6.80;;;6.10;;
3095;SDS011;1558;42.700;23.360;2022-08-18T13:27:29;6.28;;;5.70;;
3095;SDS011;1558;42.700;23.360;2022-08-18T13:30:02;7.57;;;5.93;;
3095;SDS011;1558;42.700;23.360;2022-08-18T13:32:52;6.28;;;5.78;;
3095;SDS011;1558;42.700;23.360;2022-08-18T13:35:24;7.57;;;6.05;;
3095;SDS011;1558;42.700;23.360;2022-08-18T13:38:05;6.50;;;5.78;;
3095;SDS011;1558;42.700;23.360;2022-08-18T13:40:42;6.88;;;6.35;;
3095;SDS011;1558;42.700;23.360;2022-08-18T13:43:12;9.20;;;5.93;;
3095;SDS011;1558;42.700;23.360;2022-08-18T13:45:43;6.68;;;6.05;;
3095;SDS011;1558;42.700;23.360;2022-08-18T13:48:21;9.35;;;6.22;;
3095;SDS011;1558;42.700;23.360;2022-08-18T13:50:49;6.75;;;6.20;;
3095;SDS011;1558;42.700;23.360;2022-08-18T13:53:22;6.95;;;6.07;;
3095;SDS011;1558;42.700;23.360;2022-08-18T13:55:52;6.25;;;5.70;;
3095;SDS011;1558;42.700;23.360;2022-08-18T13:58:23;6.88;;;6.18;;
3095;SDS011;1558;42.700;23.360;2022-08-18T14:00:54;6.03;;;5.53;;
3095;SDS011;1558;42.700;23.360;2022-08-18T14:03:44;5.78;;;5.38;;
3095;SDS011;1558;42.700;23.360;2022-08-18T14:06:13;7.20;;;5.70;;
3095;SDS011;1558;42.700;23.360;2022-08-18T14:08:50;8.68;;;5.85;;
3095;SDS011;1558;42.700;23.360;2022-08-18T14:11:19;8.27;;;6.10;;
3095;SDS011;1558;42.700;23.360;2022-08-18T14:13:57;6.50;;;6.07;;
3095;SDS011;1558;42.700;23.360;2022-08-18T14:16:27;6.65;;;5.72;;
3095;SDS011;1558;42.700;23.360;2022-08-18T14:18:56;8.95;;;6.35;;
3095;SDS011;1558;42.700;23.360;2022-08-18T14:21:40;8.15;;;5.65;;
3095;SDS011;1558;42.700;23.360;2022-08-18T14:24:30;8.10;;;5.97;;
3095;SDS011;1558;42.700;23.360;2022-08-18T14:27:17;6.65;;;5.53;;
3095;SDS011;1558;42.700;23.360;2022-08-18T14:29:45;6.90;;;6.30;;
3095;SDS011;1558;42.700;23.360;2022-08-18T14:32:16;6.65;;;5.70;;
3095;SDS011;1558;42.700;23.360;2022-08-18T14:34:55;6.50;;;5.90;;
3095;SDS011;1558;42.700;23.360;2022-08-18T14:37:44;6.82;;;6.18;;
3095;SDS011;1558;42.700;23.360;2022-08-18T14:40:15;6.80;;;6.07;;
3095;SDS011;1558;42.700;23.360;2022-08-18T14:42:45;8.80;;;6.45;;
3095;SDS011;1558;42.700;23.360;2022-08-18T14:45:20;8.88;;;6.13;;
3095;SDS011;1558;42.700;23.360;2022-08-18T14:47:59;7.82;;;7.20;;
3095;SDS011;1558;42.700;23.360;2022-08-18T14:50:32;7.47;;;6.50;;
3095;SDS011;1558;42.700;23.360;2022-08-18T14:53:00;6.80;;;6.18;;
3095;SDS011;1558;42.700;23.360;2022-08-18T14:55:30;8.32;;;6.85;;
3095;SDS011;1558;42.700;23.360;2022-08-18T14:57:59;6.88;;;6.38;;
3095;SDS011;1558;42.700;23.360;2022-08-18T15:00:27;6.75;;;6.25;;
3095;SDS011;1558;42.700;23.360;2022-08-18T15:02:55;6.50;;;6.00;;
3095;SDS011;1558;42.700;23.360;2022-08-18T15:05:25;10.57;;;7.22;;
3095;SDS011;1558;42.700;23.360;2022-08-18T15:07:59;7.18;;;6.43;;
3095;SDS011;1558;42.700;23.360;2022-08-18T15:10:30;7.72;;;6.90;;
3095;SDS011;1558;42.700;23.360;2022-08-18T15:12:59;7.25;;;6.65;;
3095;SDS011;1558;42.700;23.360;2022-08-18T15:15:27;10.15;;;7.72;;
3095;SDS011;1558;42.700;23.360;2022-08-18T15:18:16;7.82;;;7.13;;
3095;SDS011;1558;42.700;23.360;2022-08-18T15:20:48;7.63;;;6.63;;
3095;SDS011;1558;42.700;23.360;2022-08-18T15:23:35;7.15;;;6.53;;
3095;SDS011;1558;42.700;23.360;2022-08-18T15:26:25;7.15;;;6.57;;
3095;SDS011;1558;42.700;23.360;2022-08-18T15:28:55;7.55;;;6.93;;
3095;SDS011;1558;42.700;23.360;2022-08-18T15:31:32;7.82;;;7.13;;
3095;SDS011;1558;42.700;23.360;2022-08-18T15:34:19;7.32;;;6.53;;
3095;SDS011;1558;42.700;23.360;2022-08-18T15:36:53;7.13;;;6.53;;
3095;SDS011;1558;42.700;23.360;2022-08-18T15:39:34;7.40;;;6.90;;
3095;SDS011;1558;42.700;23.360;2022-08-18T15:42:07;7.57;;;6.53;;
3095;SDS011;1558;42.700;23.360;2022-08-18T15:44:38;7.32;;;6.82;;
3095;SDS011;1558;42.700;23.360;2022-08-18T15:47:10;7.90;;;7.20;;
3095;SDS011;1558;42.700;23.360;2022-08-18T15:49:46;8.23;;;6.80;;
3095;SDS011;1558;42.700;23.360;2022-08-18T15:52:16;7.38;;;6.68;;
3095;SDS011;1558;42.700;23.360;2022-08-18T15:54:45;12.77;;;6.80;;
3095;SDS011;1558;42.700;23.360;2022-08-18T15:57:17;33.15;;;7.18;;
3095;SDS011;1558;42.700;23.360;2022-08-18T16:00:06;7.90;;;7.20;;
3095;SDS011;1558;42.700;23.360;2022-08-18T16:02:38;7.13;;;6.63;;
3095;SDS011;1558;42.700;23.360;2022-08-18T16:05:13;7.32;;;6.72;;
3095;SDS011;1558;42.700;23.360;2022-08-18T16:07:42;7.65;;;7.05;;
3095;SDS011;1558;42.700;23.360;2022-08-18T16:10:11;8.02;;;6.75;;
3095;SDS011;1558;42.700;23.360;2022-08-18T16:12:41;7.15;;;6.55;;
3095;SDS011;1558;42.700;23.360;2022-08-18T16:15:12;7.13;;;6.53;;